Kendall, WI

4:57 AM CDT on September 16, 2014 (GMT -0500)
Kendall, Wi. | Change Station
CLOSE
Current Station
Personal Weather Station
Location: Kendall, WI
Elevation: 1021 ft
Nearby Weather Stations
Active Advisory: Frost Advisory

Elev 1021 ft 43.79 °N, 90.37 °W | Updated 5 seconds ago

Clear
Clear
34.5 °F
Feels Like 34 °F
N
1.2
Wind Variable Wind from NW
Gusts 0.0 mph

Today
High -- | Low -- °F
--% Chance of Precip.
Yesterday
High -- | Low -- °F
Precip. -- in
6:41 AM 7:09 PM
Waning Gibbous, 47% visible
Pressure 30.20 in
Visibility 10.0 miles
Clouds Clear
Windchill 34 °F
Dew Point 34 °F
Humidity 97%
Rainfall 0.00 in
Snow Depth Not available.
UV 0 out of 12
Pollen 4.20 out of 12
Air Quality Not available.
Flu Activity Not available.
SPECI KVOK 160913Z AUTO 00000KT 10SM CLR 01/01 A3020 RMK AO2

More Conditions Fewer Conditions

Pressure 30.20 in
Visibility 10.0 miles
Clouds Clear
Windchill 34 °F
Dew Point 34 °F
Humidity 97%
Rainfall 0.00 in
Snow Depth Not available.
UV 0 out of 12
Pollen 4.20 out of 12
Air Quality Not available.
Flu Activity Not available.
SPECI KVOK 160913Z AUTO 00000KT 10SM CLR 01/01 A3020 RMK AO2

More Conditions Fewer Conditions

10-Day Weather Forecast

Almanac

Astronomy

Sep. 16, 2014 Rise Set
Actual Time 6:41 AM CDT 7:09 PM CDT
Civil Twilight 6:13 AM CDT 7:38 PM CDT
Nautical Twilight 5:38 AM CDT 8:12 PM CDT
Astronomical Twilight 5:03 AM CDT 8:47 PM CDT
Moon No Moon Rise 2:42 PM CDT
Length of Visible Light 13h 25m
Length of Day
12h 27m
Tomorrow will be 2m 57s shorter.
Waning Gibbous, 47% of the Moon is Illuminated
Today
Waning Gibbous
Sep 24
New
Oct 1
First Quarter
Oct 8
Full
Oct 15
Last Quarter

Today's Extremes

State Highs State Lows

Community

WunderPhotos

Upload Photos

1,753,714 photos uploaded!

WunderBlogs® & News

Nearby

Snow Depth

Station Depth Elevation
No new snow has been reported.

Earthquake Activity

City Distance Mag. Time & Date
No recent earthquake activity has been reported nearby.
Minimum magnitude displayed is 2.5.

Coastal Water Temperatures

Place Temperature
No Stations Reporting

Nearby Weather Stations